createdAt,value
2023-03-08T00:01:31.876Z,5177.41
2023-03-08T00:05:32.672Z,5177.41
2023-03-08T00:09:31.757Z,5177.41
2023-03-08T00:13:32.401Z,5177.41
2023-03-08T00:17:33.261Z,5177.41
2023-03-08T00:21:31.659Z,5177.41
2023-03-08T00:25:32.430Z,5177.41
2023-03-08T00:29:32.259Z,5177.41
2023-03-08T00:33:32.387Z,5177.41
2023-03-08T00:37:32.160Z,5177.41
2023-03-08T00:41:32.309Z,5177.41
2023-03-08T00:45:32.376Z,5177.41
2023-03-08T00:49:32.287Z,5177.41
2023-03-08T00:53:32.513Z,5177.41
2023-03-08T00:57:32.217Z,5177.41
2023-03-08T01:01:35.645Z,5177.41
2023-03-08T01:05:32.293Z,5177.41
2023-03-08T01:09:31.951Z,5177.41
2023-03-08T01:13:31.908Z,5177.41
2023-03-08T01:17:32.086Z,5177.41
2023-03-08T01:21:32.277Z,5177.41
2023-03-08T01:25:32.359Z,5177.41
2023-03-08T01:29:32.695Z,5177.41
2023-03-08T01:33:31.807Z,5177.41
2023-03-08T01:37:31.734Z,5177.41
2023-03-08T01:41:31.564Z,5177.41
2023-03-08T01:45:31.697Z,5177.41
2023-03-08T01:49:31.645Z,5177.41
2023-03-08T01:53:31.955Z,5177.41
2023-03-08T01:57:31.876Z,5177.41
2023-03-08T02:01:37.264Z,5177.41
2023-03-08T02:05:31.853Z,5177.41
2023-03-08T02:09:32.131Z,5177.41
2023-03-08T02:13:32.218Z,5177.41
2023-03-08T02:17:32.024Z,5177.41
2023-03-08T02:21:32.554Z,5177.41
2023-03-08T02:25:32.386Z,5177.41
2023-03-08T02:29:32.247Z,5177.41
2023-03-08T02:33:32.646Z,5177.41
2023-03-08T02:37:32.381Z,5177.41
2023-03-08T02:41:32.335Z,5177.41
2023-03-08T02:45:32.142Z,5177.41
2023-03-08T02:49:32.290Z,5177.41
2023-03-08T02:53:31.849Z,5177.41
2023-03-08T02:57:31.953Z,5177.41
2023-03-08T03:01:36.303Z,5177.41
2023-03-08T03:05:31.874Z,5177.41
2023-03-08T03:09:32.140Z,5177.41
2023-03-08T03:13:31.856Z,5177.41
2023-03-08T03:17:32.059Z,5177.41
2023-03-08T03:21:31.914Z,5177.41
2023-03-08T03:25:34.062Z,5177.41
2023-03-08T03:29:31.838Z,5177.41
2023-03-08T03:33:32.271Z,5177.41
2023-03-08T03:37:32.129Z,5177.41
2023-03-08T03:41:32.373Z,5177.41
2023-03-08T03:45:32.476Z,5177.41
2023-03-08T03:49:32.275Z,5177.41
2023-03-08T03:53:32.537Z,5177.41
2023-03-08T03:57:32.438Z,5177.41
2023-03-08T04:01:35.099Z,5177.41
2023-03-08T04:05:32.224Z,5177.41
2023-03-08T04:09:32.228Z,5177.41
2023-03-08T04:13:32.551Z,5177.41
2023-03-08T04:17:35.771Z,5177.41
2023-03-08T04:21:31.752Z,5177.41
2023-03-08T04:25:31.986Z,5177.41
2023-03-08T04:29:32.356Z,5177.41
2023-03-08T04:33:32.275Z,5177.41
2023-03-08T04:37:32.428Z,5177.41
2023-03-08T04:41:32.386Z,5177.41
2023-03-08T04:45:32.398Z,5177.41
2023-03-08T04:49:34.243Z,5177.41
2023-03-08T04:53:32.355Z,5177.41
2023-03-08T04:57:32.503Z,5177.41
2023-03-08T05:01:31.486Z,5177.41
2023-03-08T05:05:32.718Z,5177.41
2023-03-08T05:09:32.211Z,5177.41
2023-03-08T05:13:32.236Z,5177.41
2023-03-08T05:17:36.279Z,5177.41
2023-03-08T05:21:32.497Z,5177.41
2023-03-08T05:25:32.514Z,5177.41
2023-03-08T05:29:32.342Z,5177.41
2023-03-08T05:33:31.999Z,5177.41
2023-03-08T05:37:31.661Z,5177.41
2023-03-08T05:41:31.841Z,5177.41
2023-03-08T05:45:32.170Z,5177.41
2023-03-08T05:49:32.392Z,5177.41
2023-03-08T05:53:32.503Z,5177.41
2023-03-08T05:57:31.714Z,5177.41
2023-03-08T06:01:35.330Z,5177.41
2023-03-08T06:05:32.398Z,5177.41
2023-03-08T06:09:32.510Z,5177.41
2023-03-08T06:13:32.258Z,5177.41
2023-03-08T06:17:32.535Z,5177.41
2023-03-08T06:21:32.145Z,5177.41
2023-03-08T06:25:32.675Z,5177.41
2023-03-08T06:29:32.325Z,5177.41
2023-03-08T06:33:32.783Z,5177.41
2023-03-08T06:37:32.369Z,5177.41
2023-03-08T06:41:32.331Z,5177.41
2023-03-08T06:45:33.514Z,5177.41
2023-03-08T06:49:32.014Z,5177.41
2023-03-08T06:53:32.222Z,5177.41
2023-03-08T06:57:32.166Z,5177.41
2023-03-08T07:01:39.273Z,5177.41
2023-03-08T07:05:34.818Z,5177.41
2023-03-08T07:09:32.238Z,5177.41
2023-03-08T07:13:32.247Z,5177.41
2023-03-08T07:17:32.282Z,5177.41
2023-03-08T07:21:32.665Z,5177.41
2023-03-08T07:25:34.685Z,5177.41
2023-03-08T07:29:32.092Z,5177.41
2023-03-08T07:33:32.939Z,5177.41
2023-03-08T07:37:32.199Z,5177.41
2023-03-08T07:41:32.136Z,5177.41
2023-03-08T07:45:32.316Z,5177.41
2023-03-08T07:49:32.417Z,5177.41
2023-03-08T07:53:32.394Z,5177.41
2023-03-08T07:57:32.382Z,5177.41
2023-03-08T08:01:32.781Z,5177.41
2023-03-08T08:05:33.602Z,5177.41
2023-03-08T08:09:32.375Z,5177.41
2023-03-08T08:13:32.512Z,5177.41
2023-03-08T08:17:35.534Z,5177.41
2023-03-08T08:21:32.352Z,5177.41
2023-03-08T08:25:32.495Z,5177.41
2023-03-08T08:29:32.363Z,5177.41
2023-03-08T08:33:32.245Z,5177.41
2023-03-08T08:37:32.874Z,5177.41
2023-03-08T08:41:36.274Z,5177.41
2023-03-08T08:45:31.501Z,5177.41
2023-03-08T08:49:31.780Z,5177.41
2023-03-08T08:53:32.127Z,5177.41
2023-03-08T08:57:45.397Z,5177.41
2023-03-08T09:01:35.070Z,5177.41
2023-03-08T09:05:33.694Z,5177.41
2023-03-08T09:09:32.537Z,5177.41
2023-03-08T09:13:33.156Z,5177.41
2023-03-08T09:17:33.232Z,5177.41
2023-03-08T09:21:31.654Z,5177.41
2023-03-08T09:25:32.610Z,186.23
2023-03-08T09:29:31.580Z,26.03
2023-03-08T09:33:32.215Z,26.03
2023-03-08T09:37:31.842Z,8.14
2023-03-08T09:41:31.882Z,4.02
2023-03-08T09:45:31.989Z,4.02
2023-03-08T09:49:32.422Z,2.52
2023-03-08T09:53:32.578Z,2.52
2023-03-08T09:57:32.183Z,2.52
2023-03-08T10:01:40.583Z,2.52
2023-03-08T10:05:46.530Z,2.52
2023-03-08T10:09:32.739Z,2.52
2023-03-08T10:13:32.632Z,2.52
2023-03-08T10:17:32.264Z,2.52
2023-03-08T10:21:31.735Z,2.52
2023-03-08T10:25:32.139Z,2.52
2023-03-08T10:29:32.273Z,2.52
2023-03-08T10:33:32.509Z,2.52
2023-03-08T10:37:31.615Z,2.52
2023-03-08T10:41:31.889Z,2.52
2023-03-08T10:45:32.262Z,2.52
2023-03-08T10:49:32.113Z,2.52
2023-03-08T10:53:32.345Z,22.89
2023-03-08T10:57:32.336Z,22.89
2023-03-08T11:01:35.461Z,7.23
2023-03-08T11:05:32.004Z,3380.55
2023-03-08T11:09:31.903Z,3380.55
2023-03-08T11:13:32.400Z,1.96
2023-03-08T11:17:32.305Z,1.44
2023-03-08T11:21:32.282Z,1.44
2023-03-08T11:25:32.302Z,1.16
2023-03-08T11:29:33.118Z,0.96
2023-03-08T11:33:34.018Z,0.96
2023-03-08T11:37:32.431Z,0.8
2023-03-08T11:41:32.283Z,0.72
2023-03-08T11:45:32.509Z,0.72
2023-03-08T11:49:32.628Z,0.64
2023-03-08T11:53:32.452Z,613.21
2023-03-08T11:57:32.572Z,613.21
2023-03-08T12:01:32.424Z,0.54
2023-03-08T12:05:36.066Z,0.54
2023-03-08T12:09:32.550Z,0.54
2023-03-08T12:13:33.884Z,0.54
2023-03-08T12:17:34.192Z,0.54
2023-03-08T12:21:31.548Z,0.54
2023-03-08T12:25:34.505Z,0.4
2023-03-08T12:29:34.720Z,403.07
2023-03-08T12:33:34.341Z,403.07
2023-03-08T12:37:33.116Z,0.36
2023-03-08T12:41:32.853Z,0.33
2023-03-08T12:45:32.303Z,0.33
2023-03-08T12:49:32.915Z,0.32
2023-03-08T12:53:32.118Z,0.32
2023-03-08T12:57:32.091Z,0.32
2023-03-08T13:01:36.361Z,0.33
2023-03-08T13:05:48.012Z,0.33
2023-03-08T13:09:31.598Z,363.75
2023-03-08T13:13:39.486Z,363.75
2023-03-08T13:17:32.969Z,363.75
2023-03-08T13:21:32.723Z,363.75
2023-03-08T13:25:31.872Z,0.35
2023-03-08T13:29:44.163Z,0.35
2023-03-08T13:33:31.901Z,0.36
2023-03-08T13:37:31.714Z,0.35
2023-03-08T13:41:32.072Z,0.35
2023-03-08T13:45:32.308Z,0.35
2023-03-08T13:49:32.297Z,0.34
2023-03-08T13:53:32.628Z,0.34
2023-03-08T13:57:32.125Z,0.33
2023-03-08T14:01:36.853Z,327.23
2023-03-08T14:05:32.038Z,327.23
2023-03-08T14:09:31.768Z,0.3
2023-03-08T14:13:32.214Z,306.61
2023-03-08T14:17:32.486Z,306.61
2023-03-08T14:21:32.749Z,306.61
2023-03-08T14:25:32.955Z,306.61
2023-03-08T14:29:32.701Z,293.39
2023-03-08T14:33:42.599Z,293.39
2023-03-08T14:37:31.871Z,280.57
2023-03-08T14:41:34.290Z,0.27
2023-03-08T14:45:31.856Z,0.27
2023-03-08T14:49:32.069Z,0.27
2023-03-08T14:53:32.129Z,0.27
2023-03-08T14:57:32.090Z,0.27
2023-03-08T15:01:35.428Z,250.25
2023-03-08T15:05:40.320Z,250.25
2023-03-08T15:09:32.211Z,250.25
2023-03-08T15:13:32.374Z,250.25
2023-03-08T15:17:33.716Z,250.25
2023-03-08T15:21:32.523Z,250.25
2023-03-08T15:25:32.371Z,250.25
2023-03-08T15:29:32.315Z,250.25
2023-03-08T15:33:33.639Z,250.25
2023-03-08T15:37:32.425Z,250.25
2023-03-08T15:41:31.826Z,250.25
2023-03-08T15:45:31.699Z,250.25
2023-03-08T15:49:32.110Z,250.25
2023-03-08T15:53:57.014Z,250.25
2023-03-08T15:57:32.098Z,250.25
2023-03-08T16:01:35.416Z,250.25
2023-03-08T16:05:32.022Z,250.25
2023-03-08T16:09:31.766Z,250.25
2023-03-08T16:13:31.645Z,250.25
2023-03-08T16:17:50.753Z,250.25
2023-03-08T16:21:31.799Z,250.25
2023-03-08T16:25:32.288Z,250.25
2023-03-08T16:29:32.164Z,250.25
2023-03-08T16:33:32.960Z,250.25
2023-03-08T16:37:32.437Z,250.25
2023-03-08T16:41:46.391Z,250.25
2023-03-08T16:45:31.685Z,250.25
2023-03-08T16:49:31.650Z,250.25
2023-03-08T16:53:31.748Z,250.25
2023-03-08T16:57:42.093Z,250.25
2023-03-08T17:01:36.390Z,250.25
2023-03-08T17:05:31.861Z,250.25
2023-03-08T17:09:34.468Z,250.25
2023-03-08T17:13:31.936Z,250.25
2023-03-08T17:17:32.136Z,250.25
2023-03-08T17:21:32.266Z,250.25
2023-03-08T17:25:32.357Z,250.25
2023-03-08T17:29:32.407Z,250.25
2023-03-08T17:33:32.273Z,250.25
2023-03-08T17:37:33.092Z,250.25
2023-03-08T17:41:32.305Z,250.25
2023-03-08T17:45:32.606Z,250.25
2023-03-08T17:49:32.388Z,250.25
2023-03-08T17:53:32.428Z,250.25
2023-03-08T17:57:32.292Z,250.25
2023-03-08T18:01:39.180Z,250.25
2023-03-08T18:05:32.679Z,250.25
2023-03-08T18:09:32.560Z,250.25
2023-03-08T18:13:31.689Z,250.25
2023-03-08T18:17:31.996Z,250.25
2023-03-08T18:21:47.410Z,250.25
2023-03-08T18:25:31.894Z,250.25
2023-03-08T18:29:31.784Z,250.25
2023-03-08T18:33:32.101Z,250.25
2023-03-08T18:37:31.861Z,250.25
2023-03-08T18:41:32.613Z,250.25
2023-03-08T18:45:32.002Z,250.25
2023-03-08T18:49:32.354Z,250.25
2023-03-08T18:53:32.166Z,250.25
2023-03-08T18:57:33.257Z,250.25
2023-03-08T19:01:35.973Z,250.25
2023-03-08T19:05:32.165Z,250.25
2023-03-08T19:09:33.166Z,250.25
2023-03-08T19:13:32.317Z,250.25
2023-03-08T19:17:32.832Z,250.25
2023-03-08T19:21:32.285Z,250.25
2023-03-08T19:25:32.540Z,250.25
2023-03-08T19:29:31.340Z,250.25
2023-03-08T19:33:43.099Z,250.25
2023-03-08T19:37:31.662Z,250.25
2023-03-08T19:41:32.218Z,250.25
2023-03-08T19:45:31.931Z,250.25
2023-03-08T19:49:31.865Z,250.25
2023-03-08T19:53:32.082Z,250.25
2023-03-08T19:57:31.981Z,250.25
2023-03-08T20:01:36.211Z,250.25
2023-03-08T20:05:31.980Z,250.25
2023-03-08T20:09:32.033Z,250.25
2023-03-08T20:13:32.214Z,250.25
2023-03-08T20:17:32.473Z,250.25
2023-03-08T20:21:32.078Z,250.25
2023-03-08T20:25:32.126Z,250.25
2023-03-08T20:29:31.951Z,250.25
2023-03-08T20:33:32.104Z,250.25
2023-03-08T20:37:32.172Z,250.25
2023-03-08T20:41:35.039Z,250.25
2023-03-08T20:45:32.336Z,250.25
2023-03-08T20:49:31.998Z,250.25
2023-03-08T20:53:33.639Z,250.25
2023-03-08T20:57:32.029Z,250.25
2023-03-08T21:01:38.334Z,250.25
2023-03-08T21:05:32.411Z,250.25
2023-03-08T21:09:32.422Z,250.25
2023-03-08T21:13:35.078Z,250.25
2023-03-08T21:17:32.458Z,250.25
2023-03-08T21:21:34.479Z,250.25
2023-03-08T21:25:32.024Z,250.25
2023-03-08T21:29:31.760Z,250.25
2023-03-08T21:33:35.666Z,250.25
2023-03-08T21:37:31.806Z,250.25
2023-03-08T21:41:31.724Z,250.25
2023-03-08T21:45:31.688Z,250.25
2023-03-08T21:49:31.586Z,250.25
2023-03-08T21:53:32.381Z,250.25
2023-03-08T21:57:32.482Z,250.25
2023-03-08T22:01:35.740Z,250.25
2023-03-08T22:05:31.970Z,250.25
2023-03-08T22:09:32.175Z,250.25
2023-03-08T22:13:31.873Z,250.25
2023-03-08T22:17:32.320Z,250.25
2023-03-08T22:21:31.982Z,250.25
2023-03-08T22:25:32.362Z,250.25
2023-03-08T22:29:32.343Z,250.25
2023-03-08T22:33:32.001Z,250.25
2023-03-08T22:37:32.012Z,250.25
2023-03-08T22:41:31.919Z,250.25
2023-03-08T22:45:31.996Z,250.25
2023-03-08T22:49:31.868Z,250.25
2023-03-08T22:53:32.388Z,250.25
2023-03-08T22:57:35.013Z,250.25
2023-03-08T23:01:37.850Z,250.25
2023-03-08T23:05:32.239Z,250.25
2023-03-08T23:09:32.253Z,250.25
2023-03-08T23:13:45.678Z,250.25
2023-03-08T23:17:32.464Z,250.25
2023-03-08T23:21:32.713Z,250.25
2023-03-08T23:25:32.519Z,250.25
2023-03-08T23:29:31.590Z,250.25
2023-03-08T23:33:32.096Z,250.25
2023-03-08T23:37:32.026Z,250.25
2023-03-08T23:41:32.018Z,250.25
2023-03-08T23:45:31.858Z,250.25
2023-03-08T23:49:33.981Z,250.25
2023-03-08T23:53:32.366Z,250.25
2023-03-08T23:57:31.892Z,250.25
